Bay Bridge — 3FCS5 — position and weather

sailwx.info

Track history (hours):
 
Tides and Currents Weather Stations Pressure Air Temp Water Temp Dewpoint Dewpoint Depression Visibility Wind Speed Wind Dir Waves Ship Positions

Bay Bridge

Last reported at 2017-Apr-26 21:55 UTC. Time now 2017-Apr-27 05:08 UTC.
Position N 31°20' E 121°39'.

Length 267 m; draft 10.2 m.

Type: Ship (hazmat cat A). MMSI: 354120000.

Date/timePositionNaut miles runAvg speedWind from/ knotsBaromVisibWave heightAir tempDewpointWater temp
2017-Apr-26 21:55N 31°20' E 121°39'0 0.0
2017-Apr-26 19:37N 31°20' E 121°39'0 0.2
2017-Apr-26 19:19N 31°20' E 121°39'0 0.1
2017-Apr-26 17:43N 31°20' E 121°39'0 0.5
2017-Apr-26 17:16N 31°21' E 121°39'1 1.6
2017-Apr-26 16:46N 31°21' E 121°39'2 6.6
2017-Apr-26 16:30N 31°21' E 121°40'5 9.5
2017-Apr-26 15:59N 31°18' E 121°46'51 2.0
2017-Apr-25 13:47N 31°04' E 122°43'0 0.2
2017-Apr-25 13:26N 31°04' E 122°43'11 9.9
2017-Apr-25 12:22N 31°07' E 122°55'617.6
2017-Apr-25 12:00N 31°07' E 123°03'917.8
2017-Apr-25 11:30N 31°07' E 123°13'917.8
2017-Apr-25 11:00N 31°07' E 123°23'1417.5
2017-Apr-25 10:12N 31°06' E 123°40'  
2017-Apr-22 10:41N 34°57' E 139°28'418.8
2017-Apr-22 10:30N 34°59' E 139°32'918.8
2017-Apr-22 10:00N 35°05' E 139°41'815.9
2017-Apr-22 09:30N 35°12' E 139°46'510.3
2017-Apr-22 09:00N 35°17' E 139°45'612.0
2017-Apr-22 08:31N 35°22' E 139°42'611.3
2017-Apr-22 08:00N 35°28' E 139°42'0 0.3
2017-Apr-22 07:28N 35°28' E 139°42'0 0.0
2017-Apr-22 06:58N 35°28' E 139°42'0 0.0
2017-Apr-22 06:28N 35°28' E 139°42'0 0.0
2017-Apr-22 05:58N 35°28' E 139°42'0 0.0
2017-Apr-22 05:28N 35°28' E 139°42'0 0.0
2017-Apr-22 04:58N 35°28' E 139°42'0 0.0
2017-Apr-22 04:28N 35°28' E 139°42'0 0.0
2017-Apr-22 03:58N 35°28' E 139°42'0 0.0
2017-Apr-22 03:28N 35°28' E 139°42'0 0.0
2017-Apr-22 02:58N 35°28' E 139°42'0 0.0
2017-Apr-22 02:28N 35°28' E 139°42'0 0.0
2017-Apr-22 01:58N 35°28' E 139°42'0 0.0
2017-Apr-22 01:28N 35°28' E 139°42'0 0.0
2017-Apr-22 00:58N 35°28' E 139°42'0 0.0
2017-Apr-22 00:28N 35°28' E 139°42'0 0.0
2017-Apr-21 23:58N 35°28' E 139°42'0 0.0
2017-Apr-21 23:28N 35°28' E 139°42'0 0.0
2017-Apr-21 22:58N 35°28' E 139°42'0 0.0
2017-Apr-21 22:28N 35°28' E 139°42'0 0.0
2017-Apr-21 21:58N 35°28' E 139°42'0 0.0
2017-Apr-21 21:28N 35°28' E 139°42'0 0.0
2017-Apr-21 20:58N 35°28' E 139°42'0 0.0
2017-Apr-21 20:28N 35°28' E 139°42'0 0.0
2017-Apr-21 19:58N 35°28' E 139°42'0 0.0
2017-Apr-21 19:28N 35°28' E 139°42'0 0.0
2017-Apr-21 18:58N 35°28' E 139°42'0 0.0
2017-Apr-21 18:28N 35°28' E 139°42'0 0.0
2017-Apr-21 17:58N 35°28' E 139°42'0 0.0
2017-Apr-21 17:28N 35°28' E 139°42'0 0.0
2017-Apr-21 16:58N 35°28' E 139°42'0 0.0
2017-Apr-21 16:28N 35°28' E 139°42'0 0.0
2017-Apr-21 15:58N 35°28' E 139°42'0 0.0
2017-Apr-21 15:28N 35°28' E 139°42'0 0.0
2017-Apr-21 14:58N 35°28' E 139°42'0 0.0
2017-Apr-21 14:28N 35°28' E 139°42'0 0.0
2017-Apr-21 13:28N 35°28' E 139°42'0 0.0
2017-Apr-21 12:58N 35°28' E 139°42'0 0.0
2017-Apr-21 12:28N 35°28' E 139°42'0 0.0
2017-Apr-21 11:58N 35°28' E 139°42'0 0.0
2017-Apr-21 11:28N 35°28' E 139°42'0 0.0
2017-Apr-21 10:58N 35°28' E 139°42'0 0.0
2017-Apr-21 10:28N 35°28' E 139°42'0 0.0
2017-Apr-21 09:58N 35°28' E 139°42'0 0.0
2017-Apr-21 09:28N 35°28' E 139°42'0 0.1
2017-Apr-21 09:00N 35°28' E 139°42'2 4.5
2017-Apr-21 08:30N 35°27' E 139°44'1 2.2
2017-Apr-21 07:58N 35°27' E 139°46'0 0.0
2017-Apr-21 07:28N 35°27' E 139°46'0 0.1
2017-Apr-21 06:58N 35°27' E 139°46'1 1.3
2017-Apr-21 06:30N 35°27' E 139°46'4 7.4
2017-Apr-21 06:00N 35°29' E 139°50'510.5
2017-Apr-21 05:30N 35°34' E 139°48'3 6.2
2017-Apr-21 05:00N 35°37' E 139°46'0 0.1
2017-Apr-21 04:28N 35°37' E 139°46'0 0.0
2017-Apr-21 03:55N 35°37' E 139°46'0 0.0
2017-Apr-21 03:25N 35°37' E 139°46'0 0.0
2017-Apr-21 02:58N 35°37' E 139°46'0 0.0
2017-Apr-21 02:28N 35°37' E 139°46'0 0.0
2017-Apr-21 01:58N 35°37' E 139°46'0 0.0
2017-Apr-21 01:28N 35°37' E 139°46'0 0.0
2017-Apr-21 00:58N 35°37' E 139°46'0 0.0
2017-Apr-21 00:28N 35°37' E 139°46'0 0.0
2017-Apr-20 23:58N 35°37' E 139°46'0 0.0
2017-Apr-20 23:28N 35°37' E 139°46'0 0.0
2017-Apr-20 22:58N 35°37' E 139°46'0 0.0
2017-Apr-20 22:28N 35°37' E 139°46'0 0.0
2017-Apr-20 21:58N 35°37' E 139°46'0 0.0
2017-Apr-20 21:28N 35°37' E 139°46'0 0.0
2017-Apr-20 20:58N 35°37' E 139°46'0 0.0
2017-Apr-20 20:28N 35°37' E 139°46'0 0.0
2017-Apr-20 19:58N 35°37' E 139°46'0 0.0
2017-Apr-20 19:28N 35°37' E 139°46'0 0.1
2017-Apr-20 18:58N 35°37' E 139°46'0 0.1
2017-Apr-20 18:28N 35°37' E 139°46'0 0.0
2017-Apr-20 17:58N 35°37' E 139°46'0 0.0
2017-Apr-20 17:28N 35°37' E 139°46'0 0.0
2017-Apr-20 16:58N 35°37' E 139°46'0 0.0
2017-Apr-20 16:28N 35°37' E 139°46'0 0.0
2017-Apr-20 15:58N 35°37' E 139°46'0 0.0
2017-Apr-20 15:28N 35°37' E 139°46'0 0.0
2017-Apr-20 14:58N 35°37' E 139°46'0 0.0
2017-Apr-20 13:58N 35°37' E 139°46'0 0.0
2017-Apr-20 13:28N 35°37' E 139°46'0 0.0
2017-Apr-20 12:58N 35°37' E 139°46'0 0.0
2017-Apr-20 12:28N 35°37' E 139°46'0 0.0
2017-Apr-20 11:58N 35°37' E 139°46'0 0.0
2017-Apr-20 11:28N 35°37' E 139°46'0 0.0
2017-Apr-20 10:58N 35°37' E 139°46'0 0.0
2017-Apr-20 10:28N 35°37' E 139°46'0 0.0
2017-Apr-20 09:58N 35°37' E 139°46'0 0.0
2017-Apr-20 09:25N 35°37' E 139°46'1 2.5
2017-Apr-20 09:00N 35°36' E 139°47'5 9.4
2017-Apr-20 08:30N 35°33' E 139°51'611.8
2017-Apr-20 08:00N 35°27' E 139°49'714.6
2017-Apr-20 07:30N 35°21' E 139°45'611.4
2017-Apr-20 07:00N 35°15' E 139°47'611.3
2017-Apr-20 06:30N 35°10' E 139°47'4 7.8
2017-Apr-20 06:00N 35°06' E 139°46'4 7.6
2017-Apr-20 05:30N 35°02' E 139°44'611.8
2017-Apr-20 05:00N 34°57' E 139°43'6 9.7
2017-Apr-20 04:24N 34°51' E 139°45'610.6
2017-Apr-20 03:52N 34°47' E 139°50'10 9.7
2017-Apr-20 02:47N 34°47' E 140°03'  
Track history (hours):
 
Tides and Currents Weather Stations Pressure Air Temp Water Temp Dewpoint Dewpoint Depression Visibility Wind Speed Wind Dir Waves Ship Positions

Bay Bridge

Last reported at 2017-Apr-26 21:55 UTC. Time now 2017-Apr-27 05:08 UTC.
Position N 31°20' E 121°39'.

Length 267 m; draft 10.2 m.

Type: Ship (hazmat cat A). MMSI: 354120000.

Date/timePositionNaut miles runAvg speedWind from/ knotsBaromVisibWave heightAir tempDewpointWater temp
2017-Apr-26 21:55N 31°20' E 121°39'0 0.0
2017-Apr-26 19:37N 31°20' E 121°39'0 0.2
2017-Apr-26 19:19N 31°20' E 121°39'0 0.1
2017-Apr-26 17:43N 31°20' E 121°39'0 0.5
2017-Apr-26 17:16N 31°21' E 121°39'1 1.6
2017-Apr-26 16:46N 31°21' E 121°39'2 6.6
2017-Apr-26 16:30N 31°21' E 121°40'5 9.5
2017-Apr-26 15:59N 31°18' E 121°46'51 2.0
2017-Apr-25 13:47N 31°04' E 122°43'0 0.2
2017-Apr-25 13:26N 31°04' E 122°43'11 9.9
2017-Apr-25 12:22N 31°07' E 122°55'617.6
2017-Apr-25 12:00N 31°07' E 123°03'917.8
2017-Apr-25 11:30N 31°07' E 123°13'917.8
2017-Apr-25 11:00N 31°07' E 123°23'1417.5
2017-Apr-25 10:12N 31°06' E 123°40'  
2017-Apr-22 10:41N 34°57' E 139°28'418.8
2017-Apr-22 10:30N 34°59' E 139°32'918.8
2017-Apr-22 10:00N 35°05' E 139°41'815.9
2017-Apr-22 09:30N 35°12' E 139°46'510.3
2017-Apr-22 09:00N 35°17' E 139°45'612.0
2017-Apr-22 08:31N 35°22' E 139°42'611.3
2017-Apr-22 08:00N 35°28' E 139°42'0 0.3
2017-Apr-22 07:28N 35°28' E 139°42'0 0.0
2017-Apr-22 06:58N 35°28' E 139°42'0 0.0
2017-Apr-22 06:28N 35°28' E 139°42'0 0.0
2017-Apr-22 05:58N 35°28' E 139°42'0 0.0
2017-Apr-22 05:28N 35°28' E 139°42'0 0.0
2017-Apr-22 04:58N 35°28' E 139°42'0 0.0
2017-Apr-22 04:28N 35°28' E 139°42'0 0.0
2017-Apr-22 03:58N 35°28' E 139°42'0 0.0
2017-Apr-22 03:28N 35°28' E 139°42'0 0.0
2017-Apr-22 02:58N 35°28' E 139°42'0 0.0
2017-Apr-22 02:28N 35°28' E 139°42'0 0.0
2017-Apr-22 01:58N 35°28' E 139°42'0 0.0
2017-Apr-22 01:28N 35°28' E 139°42'0 0.0
2017-Apr-22 00:58N 35°28' E 139°42'0 0.0
2017-Apr-22 00:28N 35°28' E 139°42'0 0.0
2017-Apr-21 23:58N 35°28' E 139°42'0 0.0
2017-Apr-21 23:28N 35°28' E 139°42'0 0.0
2017-Apr-21 22:58N 35°28' E 139°42'0 0.0
2017-Apr-21 22:28N 35°28' E 139°42'0 0.0
2017-Apr-21 21:58N 35°28' E 139°42'0 0.0
2017-Apr-21 21:28N 35°28' E 139°42'0 0.0
2017-Apr-21 20:58N 35°28' E 139°42'0 0.0
2017-Apr-21 20:28N 35°28' E 139°42'0 0.0
2017-Apr-21 19:58N 35°28' E 139°42'0 0.0
2017-Apr-21 19:28N 35°28' E 139°42'0 0.0
2017-Apr-21 18:58N 35°28' E 139°42'0 0.0
2017-Apr-21 18:28N 35°28' E 139°42'0 0.0
2017-Apr-21 17:58N 35°28' E 139°42'0 0.0
2017-Apr-21 17:28N 35°28' E 139°42'0 0.0
2017-Apr-21 16:58N 35°28' E 139°42'0 0.0
2017-Apr-21 16:28N 35°28' E 139°42'0 0.0
2017-Apr-21 15:58N 35°28' E 139°42'0 0.0
2017-Apr-21 15:28N 35°28' E 139°42'0 0.0
2017-Apr-21 14:58N 35°28' E 139°42'0 0.0
2017-Apr-21 14:28N 35°28' E 139°42'0 0.0
2017-Apr-21 13:28N 35°28' E 139°42'0 0.0
2017-Apr-21 12:58N 35°28' E 139°42'0 0.0
2017-Apr-21 12:28N 35°28' E 139°42'0 0.0
2017-Apr-21 11:58N 35°28' E 139°42'0 0.0
2017-Apr-21 11:28N 35°28' E 139°42'0 0.0
2017-Apr-21 10:58N 35°28' E 139°42'0 0.0
2017-Apr-21 10:28N 35°28' E 139°42'0 0.0
2017-Apr-21 09:58N 35°28' E 139°42'0 0.0
2017-Apr-21 09:28N 35°28' E 139°42'0 0.1
2017-Apr-21 09:00N 35°28' E 139°42'2 4.5
2017-Apr-21 08:30N 35°27' E 139°44'1 2.2
2017-Apr-21 07:58N 35°27' E 139°46'0 0.0
2017-Apr-21 07:28N 35°27' E 139°46'0 0.1
2017-Apr-21 06:58N 35°27' E 139°46'1 1.3
2017-Apr-21 06:30N 35°27' E 139°46'4 7.4
2017-Apr-21 06:00N 35°29' E 139°50'510.5
2017-Apr-21 05:30N 35°34' E 139°48'3 6.2
2017-Apr-21 05:00N 35°37' E 139°46'0 0.1
2017-Apr-21 04:28N 35°37' E 139°46'0 0.0
2017-Apr-21 03:55N 35°37' E 139°46'0 0.0
2017-Apr-21 03:25N 35°37' E 139°46'0 0.0
2017-Apr-21 02:58N 35°37' E 139°46'0 0.0
2017-Apr-21 02:28N 35°37' E 139°46'0 0.0
2017-Apr-21 01:58N 35°37' E 139°46'0 0.0
2017-Apr-21 01:28N 35°37' E 139°46'0 0.0
2017-Apr-21 00:58N 35°37' E 139°46'0 0.0
2017-Apr-21 00:28N 35°37' E 139°46'0 0.0
2017-Apr-20 23:58N 35°37' E 139°46'0 0.0
2017-Apr-20 23:28N 35°37' E 139°46'0 0.0
2017-Apr-20 22:58N 35°37' E 139°46'0 0.0
2017-Apr-20 22:28N 35°37' E 139°46'0 0.0
2017-Apr-20 21:58N 35°37' E 139°46'0 0.0
2017-Apr-20 21:28N 35°37' E 139°46'0 0.0
2017-Apr-20 20:58N 35°37' E 139°46'0 0.0
2017-Apr-20 20:28N 35°37' E 139°46'0 0.0
2017-Apr-20 19:58N 35°37' E 139°46'0 0.0
2017-Apr-20 19:28N 35°37' E 139°46'0 0.1
2017-Apr-20 18:58N 35°37' E 139°46'0 0.1
2017-Apr-20 18:28N 35°37' E 139°46'0 0.0
2017-Apr-20 17:58N 35°37' E 139°46'0 0.0
2017-Apr-20 17:28N 35°37' E 139°46'0 0.0
2017-Apr-20 16:58N 35°37' E 139°46'0 0.0
2017-Apr-20 16:28N 35°37' E 139°46'0 0.0
2017-Apr-20 15:58N 35°37' E 139°46'0 0.0
2017-Apr-20 15:28N 35°37' E 139°46'0 0.0
2017-Apr-20 14:58N 35°37' E 139°46'0 0.0
2017-Apr-20 13:58N 35°37' E 139°46'0 0.0
2017-Apr-20 13:28N 35°37' E 139°46'0 0.0
2017-Apr-20 12:58N 35°37' E 139°46'0 0.0
2017-Apr-20 12:28N 35°37' E 139°46'0 0.0
2017-Apr-20 11:58N 35°37' E 139°46'0 0.0
2017-Apr-20 11:28N 35°37' E 139°46'0 0.0
2017-Apr-20 10:58N 35°37' E 139°46'0 0.0
2017-Apr-20 10:28N 35°37' E 139°46'0 0.0
2017-Apr-20 09:58N 35°37' E 139°46'0 0.0
2017-Apr-20 09:25N 35°37' E 139°46'1 2.5
2017-Apr-20 09:00N 35°36' E 139°47'5 9.4
2017-Apr-20 08:30N 35°33' E 139°51'611.8
2017-Apr-20 08:00N 35°27' E 139°49'714.6
2017-Apr-20 07:30N 35°21' E 139°45'611.4
2017-Apr-20 07:00N 35°15' E 139°47'611.3
2017-Apr-20 06:30N 35°10' E 139°47'4 7.8
2017-Apr-20 06:00N 35°06' E 139°46'4 7.6
2017-Apr-20 05:30N 35°02' E 139°44'611.8
2017-Apr-20 05:00N 34°57' E 139°43'6 9.7
2017-Apr-20 04:24N 34°51' E 139°45'610.6
2017-Apr-20 03:52N 34°47' E 139°50'10 9.7
2017-Apr-20 02:47N 34°47' E 140°03'  

Dump ship's entire track history